Time;durP1;ratioP1;P1;durP2;ratioP2;P2;SDS_P1;SDS_P2;PMS_P1;PMS_P2;Temp;Humidity;BMP_temperature;BMP_pressure;BME280_temperature;BME280_humidity;BME280_pressure;Samples;Min_cycle;Max_cycle;Signal;HPM_P1;HPM_P2
2022/04/22 00:01:28;;;;;;;4.50;4.10;;;;;;;;;;4928745;29;20204;-71
2022/04/22 00:03:55;;;;;;;3.95;3.45;;;;;;;;;;4934988;29;20226;-70
2022/04/22 00:06:22;;;;;;;5.53;4.97;;;;;;;;;;4931538;29;20195;-71
2022/04/22 00:08:49;;;;;;;3.35;3.05;;;;;;;;;;4933512;29;20213;-72
2022/04/22 00:11:32;;;;;;;5.07;3.90;;;;;;;;;;4941349;29;20194;-72
2022/04/22 00:13:59;;;;;;;4.10;3.70;;;;;;;;;;4929827;29;20214;-70
2022/04/22 00:16:28;;;;;;;5.15;3.70;;;;;;;;;;4936664;29;20206;-71
2022/04/22 00:18:56;;;;;;;4.30;3.90;;;;;;;;;;4932402;29;20222;-70
2022/04/22 00:21:23;;;;;;;6.43;4.47;;;;;;;;;;4932224;29;20203;-71
2022/04/22 00:23:50;;;;;;;5.00;4.53;;;;;;;;;;4931353;29;20210;-70
2022/04/22 00:26:17;;;;;;;4.82;3.58;;;;;;;;;;4938340;29;20570;-70
2022/04/22 00:28:44;;;;;;;6.45;4.32;;;;;;;;;;4935270;29;20210;-73
2022/04/22 00:31:11;;;;;;;6.30;4.55;;;;;;;;;;4933884;29;20199;-71
2022/04/22 00:33:40;;;;;;;5.25;4.60;;;;;;;;;;4936430;29;20207;-72
2022/04/22 00:36:07;;;;;;;5.32;4.15;;;;;;;;;;4933147;28;20558;-71
2022/04/22 00:38:35;;;;;;;4.50;3.65;;;;;;;;;;4933652;29;20222;-72
2022/04/22 00:41:02;;;;;;;5.82;4.18;;;;;;;;;;4936109;29;20219;-71
2022/04/22 00:43:29;;;;;;;4.88;4.38;;;;;;;;;;4936923;29;20599;-71
2022/04/22 00:45:57;;;;;;;6.70;5.35;;;;;;;;;;4932001;29;20207;-71
2022/04/22 00:48:24;;;;;;;6.15;4.45;;;;;;;;;;4934371;29;20694;-71
2022/04/22 00:50:53;;;;;;;6.18;5.55;;;;;;;;;;4933428;29;20657;-71
2022/04/22 00:53:20;;;;;;;5.97;4.20;;;;;;;;;;4934819;29;20202;-71
2022/04/22 00:55:47;;;;;;;4.88;4.47;;;;;;;;;;4932597;29;20207;-70
2022/04/22 00:58:14;;;;;;;4.78;4.38;;;;;;;;;;4934519;29;20221;-71
2022/04/22 01:00:41;;;;;;;6.97;4.35;;;;;;;;;;4932807;29;20203;-71
2022/04/22 01:03:08;;;;;;;5.22;4.72;;;;;;;;;;4929614;29;20199;-70
2022/04/22 01:11:23;;;;;;;6.80;4.85;;;;;;;;;;4934032;29;20187;-71
2022/04/22 01:13:51;;;;;;;7.05;5.20;;;;;;;;;;4940282;29;20207;-71
2022/04/22 01:16:18;;;;;;;4.55;3.65;;;;;;;;;;4929480;29;20285;-71
2022/04/22 01:18:45;;;;;;;5.40;4.53;;;;;;;;;;4932448;29;20223;-71
2022/04/22 01:21:13;;;;;;;7.75;4.82;;;;;;;;;;4927658;29;20192;-71
2022/04/22 01:23:41;;;;;;;7.57;5.10;;;;;;;;;;4931741;29;20202;-73
2022/04/22 01:26:08;;;;;;;9.00;5.45;;;;;;;;;;4937649;29;20195;-72
2022/04/22 01:28:35;;;;;;;7.53;4.85;;;;;;;;;;4932652;29;20203;-74
2022/04/22 01:31:03;;;;;;;5.20;4.60;;;;;;;;;;4930911;29;20203;-72
2022/04/22 01:33:30;;;;;;;7.38;6.57;;;;;;;;;;4930909;29;20198;-71
2022/04/22 01:35:57;;;;;;;6.32;5.50;;;;;;;;;;4932601;29;20203;-72
2022/04/22 01:38:25;;;;;;;6.07;5.47;;;;;;;;;;4932145;29;20214;-71
2022/04/22 01:40:53;;;;;;;5.28;4.70;;;;;;;;;;4929930;29;20238;-72
2022/04/22 01:43:20;;;;;;;6.45;5.85;;;;;;;;;;4934403;29;20396;-71
2022/04/22 01:45:47;;;;;;;8.45;5.25;;;;;;;;;;4924925;29;20209;-70
2022/04/22 01:48:14;;;;;;;7.40;6.50;;;;;;;;;;4931070;29;20206;-70
2022/04/22 01:50:41;;;;;;;8.27;5.75;;;;;;;;;;4930387;29;20203;-71
2022/04/22 01:53:08;;;;;;;6.10;5.47;;;;;;;;;;4930158;29;20202;-71
2022/04/22 01:55:37;;;;;;;6.68;5.78;;;;;;;;;;4930663;29;20604;-71
2022/04/22 01:58:04;;;;;;;7.32;5.20;;;;;;;;;;4925353;29;20199;-70
2022/04/22 02:00:31;;;;;;;8.25;5.55;;;;;;;;;;4931624;29;20206;-70
2022/04/22 02:02:58;;;;;;;7.20;6.50;;;;;;;;;;4925599;29;20202;-71
2022/04/22 02:05:25;;;;;;;6.65;5.93;;;;;;;;;;4930308;29;20199;-70
2022/04/22 02:07:52;;;;;;;6.57;5.93;;;;;;;;;;4932061;29;20199;-71
2022/04/22 02:10:19;;;;;;;6.93;6.05;;;;;;;;;;4934234;29;20198;-70
2022/04/22 02:12:47;;;;;;;8.00;5.10;;;;;;;;;;4929376;29;20571;-71
2022/04/22 02:15:16;;;;;;;7.38;6.53;;;;;;;;;;4930890;29;20570;-70
2022/04/22 02:17:43;;;;;;;5.63;4.93;;;;;;;;;;4929598;29;20198;-74
2022/04/22 02:20:12;;;;;;;7.78;6.13;;;;;;;;;;4927676;29;20219;-70
2022/04/22 02:22:39;;;;;;;6.35;5.00;;;;;;;;;;4927790;29;20203;-70
2022/04/22 02:25:08;;;;;;;6.00;5.25;;;;;;;;;;4931752;29;20202;-72
2022/04/22 02:30:23;;;;;;;6.53;5.57;;;;;;;;;;4936233;29;20308;-69
2022/04/22 02:32:50;;;;;;;6.28;5.68;;;;;;;;;;4929781;29;20227;-72
2022/04/22 02:35:17;;;;;;;7.95;6.70;;;;;;;;;;4930890;29;20674;-70
2022/04/22 02:37:44;;;;;;;8.77;6.53;;;;;;;;;;4930328;29;20210;-70
2022/04/22 02:40:11;;;;;;;7.32;5.53;;;;;;;;;;4934642;29;20222;-71
2022/04/22 02:45:27;;;;;;;8.20;6.03;;;;;;;;;;4935432;29;20210;-70
2022/04/22 02:47:55;;;;;;;7.07;6.38;;;;;;;;;;4930842;29;20552;-73
2022/04/22 02:50:22;;;;;;;8.77;5.90;;;;;;;;;;4932911;29;20260;-73
2022/04/22 02:52:49;;;;;;;8.02;6.70;;;;;;;;;;4932487;29;20677;-71
2022/04/22 02:55:16;;;;;;;8.38;6.53;;;;;;;;;;4933924;29;20198;-70
2022/04/22 02:57:44;;;;;;;7.55;6.32;;;;;;;;;;4927879;29;20666;-71
2022/04/22 03:00:12;;;;;;;8.13;7.05;;;;;;;;;;4931002;29;20305;-69
2022/04/22 03:02:41;;;;;;;8.27;7.30;;;;;;;;;;4932613;29;20663;-70
2022/04/22 03:05:09;;;;;;;8.48;6.00;;;;;;;;;;4928669;29;20195;-72
2022/04/22 03:07:37;;;;;;;8.50;7.20;;;;;;;;;;4945364;29;20198;-70
2022/04/22 03:10:04;;;;;;;7.72;6.50;;;;;;;;;;4930237;29;20227;-71
2022/04/22 03:12:31;;;;;;;8.52;6.80;;;;;;;;;;4928018;29;20211;-72
2022/04/22 03:14:58;;;;;;;7.38;6.63;;;;;;;;;;4935426;29;20207;-70
2022/04/22 03:17:25;;;;;;;6.88;6.15;;;;;;;;;;4930100;29;20265;-71
2022/04/22 03:19:54;;;;;;;8.35;7.57;;;;;;;;;;4929160;29;20250;-71
2022/04/22 03:22:21;;;;;;;8.88;7.55;;;;;;;;;;4929494;29;20202;-71
2022/04/22 03:24:48;;;;;;;8.98;8.07;;;;;;;;;;4933839;29;20214;-71
2022/04/22 03:27:15;;;;;;;8.60;7.68;;;;;;;;;;4932511;29;20195;-72
2022/04/22 03:29:42;;;;;;;8.98;6.85;;;;;;;;;;4932177;29;20214;-71
2022/04/22 03:32:11;;;;;;;9.63;8.52;;;;;;;;;;4932054;29;20191;-72
2022/04/22 03:34:38;;;;;;;9.18;8.30;;;;;;;;;;4928456;29;20223;-71
2022/04/22 03:37:07;;;;;;;9.30;8.40;;;;;;;;;;4931734;29;20195;-74
2022/04/22 03:39:34;;;;;;;9.93;8.02;;;;;;;;;;4932804;29;20239;-72
2022/04/22 03:42:01;;;;;;;11.27;9.23;;;;;;;;;;4929120;29;20203;-71
2022/04/22 03:44:28;;;;;;;10.25;9.25;;;;;;;;;;4930971;29;20205;-71
2022/04/22 03:46:55;;;;;;;10.80;8.38;;;;;;;;;;4913812;29;20228;-70
2022/04/22 03:49:22;;;;;;;9.73;8.63;;;;;;;;;;4931686;29;20238;-70
2022/04/22 03:51:49;;;;;;;8.20;7.40;;;;;;;;;;4936147;29;20202;-70
2022/04/22 03:54:22;;;;;;;10.63;9.52;;;;;;;;;;4932177;29;20198;-71
2022/04/22 03:59:30;;;;;;;10.77;9.75;;;;;;;;;;4898886;29;20370;-70
2022/04/22 04:01:57;;;;;;;10.10;8.45;;;;;;;;;;4936539;29;20214;-70
2022/04/22 04:04:24;;;;;;;11.25;8.45;;;;;;;;;;4933125;29;20702;-70
2022/04/22 04:06:51;;;;;;;9.35;8.25;;;;;;;;;;4937240;29;20199;-69
2022/04/22 04:17:36;;;;;;;8.60;7.70;;;;;;;;;;4934907;29;20209;-71
2022/04/22 04:25:36;;;;;;;9.32;8.35;;;;;;;;;;4931850;29;20206;-70
2022/04/22 04:28:05;;;;;;;10.00;8.95;;;;;;;;;;4933023;29;20199;-71
2022/04/22 04:30:32;;;;;;;10.25;9.30;;;;;;;;;;4940957;29;20198;-71
2022/04/22 04:32:59;;;;;;;10.00;9.00;;;;;;;;;;4935899;29;20191;-69
2022/04/22 04:35:27;;;;;;;10.93;8.40;;;;;;;;;;4934395;29;20192;-71
2022/04/22 04:37:54;;;;;;;9.63;8.70;;;;;;;;;;4932093;29;20290;-70
2022/04/22 04:40:22;;;;;;;9.70;8.70;;;;;;;;;;4937254;29;20270;-70
2022/04/22 04:42:52;;;;;;;9.65;8.60;;;;;;;;;;4927959;29;20203;-70
2022/04/22 04:45:19;;;;;;;10.38;8.57;;;;;;;;;;4938363;29;20195;-71
2022/04/22 04:47:46;;;;;;;9.65;7.63;;;;;;;;;;4935804;29;20199;-69
2022/04/22 04:50:14;;;;;;;10.30;9.20;;;;;;;;;;4932706;29;20207;-69
2022/04/22 04:52:41;;;;;;;9.35;8.40;;;;;;;;;;4933628;29;20198;-69
2022/04/22 04:55:10;;;;;;;9.30;7.88;;;;;;;;;;4935776;29;20198;-69
2022/04/22 04:57:37;;;;;;;8.60;7.80;;;;;;;;;;4931783;29;20206;-72
2022/04/22 05:00:06;;;;;;;7.82;7.03;;;;;;;;;;4938649;29;20222;-70
2022/04/22 05:02:33;;;;;;;9.00;8.10;;;;;;;;;;4934658;29;20230;-72
2022/04/22 05:05:00;;;;;;;9.40;7.28;;;;;;;;;;4931207;29;20202;-72
2022/04/22 05:07:27;;;;;;;8.48;7.57;;;;;;;;;;4935860;29;20195;-72
2022/04/22 05:09:54;;;;;;;9.43;8.52;;;;;;;;;;4934107;29;20207;-72
2022/04/22 05:12:21;;;;;;;9.27;7.70;;;;;;;;;;4928910;29;20195;-73
2022/04/22 05:14:48;;;;;;;8.43;7.53;;;;;;;;;;4937484;29;20205;-71
2022/04/22 05:17:16;;;;;;;9.65;7.28;;;;;;;;;;4931464;29;20681;-72
2022/04/22 05:19:43;;;;;;;7.88;7.07;;;;;;;;;;4931314;29;20241;-72
2022/04/22 05:22:11;;;;;;;9.10;8.20;;;;;;;;;;4934232;29;20201;-72
2022/04/22 05:24:38;;;;;;;10.95;9.35;;;;;;;;;;4934032;29;20191;-72
2022/04/22 05:27:05;;;;;;;8.10;7.32;;;;;;;;;;4935174;29;20203;-72
2022/04/22 05:35:03;;;;;;;8.30;6.63;;;;;;;;;;4930040;29;20201;-70
2022/04/22 05:37:42;;;;;;;7.63;6.82;;;;;;;;;;4935106;29;20230;-72
2022/04/22 05:40:10;;;;;;;7.45;6.00;;;;;;;;;;4934372;29;20682;-71
2022/04/22 05:42:38;;;;;;;8.00;7.10;;;;;;;;;;4933243;29;20219;-71
2022/04/22 05:45:06;;;;;;;8.68;7.07;;;;;;;;;;4933665;29;20203;-71
2022/04/22 05:47:34;;;;;;;7.82;7.10;;;;;;;;;;4933157;29;20223;-71
2022/04/22 05:50:01;;;;;;;8.57;7.43;;;;;;;;;;4930122;29;20199;-71
2022/04/22 05:52:28;;;;;;;8.05;7.25;;;;;;;;;;4931379;29;20211;-71
2022/04/22 05:54:57;;;;;;;9.98;7.75;;;;;;;;;;4936687;29;20202;-70
2022/04/22 05:57:25;;;;;;;7.68;6.65;;;;;;;;;;4932447;29;20282;-71
2022/04/22 05:59:52;;;;;;;7.90;6.60;;;;;;;;;;4934496;29;20226;-71
2022/04/22 06:02:20;;;;;;;8.02;6.68;;;;;;;;;;4935336;29;20198;-74
2022/04/22 06:04:48;;;;;;;8.30;7.55;;;;;;;;;;4929837;29;20234;-73
2022/04/22 06:07:15;;;;;;;8.48;7.65;;;;;;;;;;4935449;29;20688;-73
2022/04/22 06:12:27;;;;;;;10.15;8.57;;;;;;;;;;4927427;29;20402;-72
2022/04/22 06:14:54;;;;;;;11.23;8.75;;;;;;;;;;4935054;29;20293;-72
2022/04/22 06:17:21;;;;;;;8.35;7.15;;;;;;;;;;4933799;29;20277;-71
2022/04/22 06:19:50;;;;;;;9.35;8.40;;;;;;;;;;4929170;29;20603;-71
2022/04/22 06:22:17;;;;;;;8.57;7.45;;;;;;;;;;4930535;29;20195;-72
2022/04/22 06:24:44;;;;;;;11.85;8.63;;;;;;;;;;4935780;29;20206;-70
2022/04/22 06:27:11;;;;;;;10.40;8.55;;;;;;;;;;4938263;29;20199;-71
2022/04/22 06:29:38;;;;;;;7.70;6.93;;;;;;;;;;4930741;29;20662;-73
2022/04/22 06:32:06;;;;;;;10.35;9.30;;;;;;;;;;4932869;29;20203;-71
2022/04/22 06:34:33;;;;;;;8.90;8.05;;;;;;;;;;4934903;28;20545;-72
2022/04/22 06:37:02;;;;;;;11.05;8.40;;;;;;;;;;4933112;29;20199;-72
2022/04/22 06:45:46;;;;;;;9.23;7.82;;;;;;;;;;4932289;29;20679;-71
2022/04/22 06:47:45;;;;;;;8.52;6.88;;;;;;;;;;4904538;29;20346;-72
2022/04/22 06:50:17;;;;;;;9.07;7.93;;;;;;;;;;4930813;29;20203;-70
2022/04/22 06:52:46;;;;;;;7.40;6.15;;;;;;;;;;4932620;29;20199;-71
2022/04/22 06:55:14;;;;;;;7.55;6.82;;;;;;;;;;4933244;29;20746;-72
2022/04/22 06:57:41;;;;;;;8.05;6.85;;;;;;;;;;4932472;29;20210;-73
2022/04/22 07:00:10;;;;;;;8.77;7.82;;;;;;;;;;4931428;29;20249;-73
2022/04/22 07:02:38;;;;;;;7.45;6.80;;;;;;;;;;4934464;29;20195;-72
2022/04/22 07:05:05;;;;;;;10.55;8.13;;;;;;;;;;4938524;29;20197;-72
2022/04/22 07:07:32;;;;;;;9.48;8.48;;;;;;;;;;4930116;29;20202;-72
2022/04/22 07:10:01;;;;;;;11.40;8.85;;;;;;;;;;4932188;29;20206;-71
2022/04/22 07:12:29;;;;;;;9.75;8.02;;;;;;;;;;4937876;29;20191;-71
2022/04/22 07:15:03;;;;;;;9.10;7.30;;;;;;;;;;4929233;29;20205;-71
2022/04/22 07:17:30;;;;;;;8.65;7.75;;;;;;;;;;4937354;29;20203;-70
2022/04/22 07:19:57;;;;;;;9.82;8.82;;;;;;;;;;4932099;29;20314;-71
2022/04/22 07:22:25;;;;;;;10.18;8.55;;;;;;;;;;4931263;29;20202;-70
2022/04/22 07:24:52;;;;;;;11.93;10.50;;;;;;;;;;4934277;29;20669;-71
2022/04/22 07:27:20;;;;;;;10.07;9.20;;;;;;;;;;4933382;29;20197;-71
2022/04/22 07:29:48;;;;;;;18.52;15.65;;;;;;;;;;4931163;29;20202;-72
2022/04/22 07:32:16;;;;;;;14.07;12.63;;;;;;;;;;4929857;29;20203;-71
2022/04/22 07:34:43;;;;;;;12.98;11.07;;;;;;;;;;4929927;29;20235;-68
2022/04/22 07:37:11;;;;;;;13.70;11.65;;;;;;;;;;4930037;29;20206;-70
2022/04/22 07:39:38;;;;;;;15.27;12.43;;;;;;;;;;4946545;29;20221;-70
2022/04/22 07:42:06;;;;;;;13.35;12.05;;;;;;;;;;4943382;29;20198;-71
2022/04/22 07:47:20;;;;;;;12.95;11.32;;;;;;;;;;4930215;29;20201;-71
2022/04/22 07:49:47;;;;;;;11.13;10.00;;;;;;;;;;4932647;29;20225;-70
2022/04/22 07:52:15;;;;;;;10.02;9.13;;;;;;;;;;4934976;29;20195;-71
2022/04/22 07:54:42;;;;;;;14.70;10.07;;;;;;;;;;4929059;29;20568;-70
2022/04/22 07:57:10;;;;;;;11.65;10.43;;;;;;;;;;4930480;29;20199;-70
2022/04/22 07:59:39;;;;;;;11.40;10.30;;;;;;;;;;4929410;29;20689;-70
2022/04/22 08:02:06;;;;;;;11.40;10.20;;;;;;;;;;4932206;29;20658;-71
2022/04/22 08:04:34;;;;;;;17.27;11.95;;;;;;;;;;4925655;29;20667;-70
2022/04/22 08:07:01;;;;;;;10.90;9.63;;;;;;;;;;4930089;29;20207;-70
2022/04/22 08:09:28;;;;;;;11.50;10.07;;;;;;;;;;4934433;29;20198;-71
2022/04/22 08:11:55;;;;;;;11.02;9.93;;;;;;;;;;4936098;29;20250;-71
2022/04/22 08:14:23;;;;;;;10.30;9.30;;;;;;;;;;4932451;29;20670;-73
2022/04/22 08:16:52;;;;;;;18.13;13.85;;;;;;;;;;4930374;29;20426;-71
2022/04/22 08:19:19;;;;;;;11.95;10.80;;;;;;;;;;4929366;29;20290;-71
2022/04/22 08:21:46;;;;;;;13.40;12.20;;;;;;;;;;4933186;29;20289;-72
2022/04/22 08:24:14;;;;;;;11.82;10.60;;;;;;;;;;4935235;29;20202;-71
2022/04/22 08:26:41;;;;;;;12.45;10.70;;;;;;;;;;4936761;29;20205;-71
2022/04/22 08:29:08;;;;;;;11.25;10.10;;;;;;;;;;4930092;29;20210;-71
2022/04/22 08:31:35;;;;;;;10.57;9.35;;;;;;;;;;4932176;29;20207;-71
2022/04/22 08:34:03;;;;;;;10.82;9.40;;;;;;;;;;4928385;29;20214;-72
2022/04/22 08:36:31;;;;;;;12.80;10.00;;;;;;;;;;4930374;29;20199;-72
2022/04/22 08:38:59;;;;;;;21.33;11.13;;;;;;;;;;4937595;29;20225;-71
2022/04/22 08:41:26;;;;;;;9.60;8.38;;;;;;;;;;4939556;29;20223;-72
2022/04/22 08:43:56;;;;;;;9.73;8.73;;;;;;;;;;4932651;29;20571;-71
2022/04/22 08:51:55;;;;;;;10.63;9.20;;;;;;;;;;4942231;29;20701;-71
2022/04/22 08:54:23;;;;;;;13.35;10.38;;;;;;;;;;4948470;29;20277;-71
2022/04/22 08:56:52;;;;;;;11.20;9.93;;;;;;;;;;4934295;29;20211;-72
2022/04/22 08:59:19;;;;;;;10.57;9.52;;;;;;;;;;4942748;29;20253;-71
2022/04/22 09:01:48;;;;;;;10.73;9.52;;;;;;;;;;4931042;29;20222;-71
2022/04/22 09:04:16;;;;;;;9.30;8.00;;;;;;;;;;4933842;29;20471;-71
2022/04/22 09:06:45;;;;;;;9.50;8.57;;;;;;;;;;4933431;29;20635;-73
2022/04/22 09:09:14;;;;;;;12.02;9.30;;;;;;;;;;4933708;29;20195;-71
2022/04/22 09:11:44;;;;;;;12.95;10.70;;;;;;;;;;4933493;29;20523;-71
2022/04/22 09:14:11;;;;;;;8.75;7.82;;;;;;;;;;4931269;29;20578;-71
2022/04/22 09:16:38;;;;;;;10.38;9.20;;;;;;;;;;4931851;29;20689;-72
2022/04/22 09:19:05;;;;;;;10.63;9.40;;;;;;;;;;4926258;29;20645;-73
2022/04/22 09:21:34;;;;;;;9.30;8.32;;;;;;;;;;4926135;29;20586;-72
2022/04/22 09:24:11;;;;;;;11.30;9.50;;;;;;;;;;4934810;29;20238;-72
2022/04/22 09:26:38;;;;;;;10.65;9.65;;;;;;;;;;4938674;29;20233;-72
2022/04/22 09:29:06;;;;;;;9.90;8.38;;;;;;;;;;4927250;29;20206;-72
2022/04/22 09:31:45;;;;;;;10.85;8.90;;;;;;;;;;4930827;29;20207;-73
2022/04/22 09:34:12;;;;;;;11.32;9.32;;;;;;;;;;4924978;29;20281;-71
2022/04/22 09:44:56;;;;;;;9.43;8.52;;;;;;;;;;4927634;29;20943;-71
2022/04/22 09:47:26;;;;;;;10.40;9.35;;;;;;;;;;4927148;29;20203;-71
2022/04/22 09:49:53;;;;;;;12.95;8.05;;;;;;;;;;4928092;29;20312;-72
2022/04/22 09:52:27;;;;;;;10.95;8.30;;;;;;;;;;4927601;29;20327;-71
2022/04/22 09:54:58;;;;;;;13.85;9.90;;;;;;;;;;4924920;29;20916;-70
2022/04/22 09:57:25;;;;;;;9.00;8.10;;;;;;;;;;4929591;29;20575;-71
2022/04/22 09:59:52;;;;;;;10.23;8.70;;;;;;;;;;4937357;29;20218;-73
2022/04/22 10:02:23;;;;;;;8.85;7.60;;;;;;;;;;4929214;29;20237;-74
2022/04/22 10:04:50;;;;;;;7.80;7.00;;;;;;;;;;4925394;29;20214;-73
2022/04/22 10:07:18;;;;;;;12.02;9.00;;;;;;;;;;4930576;29;20623;-70
2022/04/22 10:09:48;;;;;;;9.88;8.90;;;;;;;;;;4920527;29;20203;-70
2022/04/22 10:12:17;;;;;;;15.70;11.27;;;;;;;;;;4924909;29;20206;-72
2022/04/22 10:14:44;;;;;;;9.60;8.52;;;;;;;;;;4925295;29;20199;-72
2022/04/22 10:17:12;;;;;;;10.85;9.75;;;;;;;;;;4926201;29;20203;-70
2022/04/22 10:19:40;;;;;;;8.93;8.00;;;;;;;;;;4928371;29;20262;-71
2022/04/22 10:22:08;;;;;;;10.00;8.45;;;;;;;;;;4932448;29;20274;-70
2022/04/22 10:24:35;;;;;;;9.48;8.52;;;;;;;;;;4924838;29;20257;-71
2022/04/22 10:27:04;;;;;;;11.27;9.85;;;;;;;;;;4926060;29;20199;-71
2022/04/22 10:29:33;;;;;;;10.32;8.70;;;;;;;;;;4923919;29;20209;-71
2022/04/22 10:32:00;;;;;;;10.40;9.40;;;;;;;;;;4925745;29;20214;-72
2022/04/22 10:34:40;;;;;;;11.50;10.30;;;;;;;;;;4926431;29;20206;-70
2022/04/22 10:37:07;;;;;;;9.10;7.90;;;;;;;;;;4932432;29;20257;-71
2022/04/22 10:39:34;;;;;;;12.77;10.30;;;;;;;;;;4927181;29;20230;-71
2022/04/22 10:42:03;;;;;;;12.40;9.57;;;;;;;;;;4928088;29;20222;-70
2022/04/22 10:47:15;;;;;;;12.25;8.55;;;;;;;;;;4921846;29;20297;-71
2022/04/22 10:49:43;;;;;;;10.20;8.15;;;;;;;;;;4918787;29;20206;-70
2022/04/22 10:52:14;;;;;;;9.38;7.90;;;;;;;;;;4919026;29;20643;-71
2022/04/22 10:55:00;;;;;;;10.73;8.38;;;;;;;;;;4927849;29;20207;-70
2022/04/22 10:57:29;;;;;;;10.27;9.27;;;;;;;;;;4934965;29;20201;-71
2022/04/22 11:00:03;;;;;;;11.75;8.98;;;;;;;;;;4920293;29;20258;-70
2022/04/22 11:02:31;;;;;;;9.93;8.95;;;;;;;;;;4921778;29;20249;-71
2022/04/22 11:05:13;;;;;;;9.95;8.95;;;;;;;;;;4921590;29;20211;-71
2022/04/22 11:07:55;;;;;;;9.68;8.68;;;;;;;;;;4921914;29;20222;-70
2022/04/22 11:10:23;;;;;;;12.20;9.20;;;;;;;;;;4929781;29;20237;-71
2022/04/22 11:12:54;;;;;;;9.82;8.82;;;;;;;;;;4924954;29;20218;-71
2022/04/22 11:15:55;;;;;;;10.15;9.10;;;;;;;;;;4929208;29;20717;-70
2022/04/22 11:18:22;;;;;;;8.98;8.20;;;;;;;;;;4858787;29;20670;-69
2022/04/22 11:20:52;;;;;;;12.40;9.85;;;;;;;;;;4871942;29;20207;-69
2022/04/22 11:23:20;;;;;;;10.45;8.85;;;;;;;;;;4909260;29;20206;-70
2022/04/22 11:25:47;;;;;;;10.68;9.20;;;;;;;;;;4933204;29;20205;-71
2022/04/22 11:28:15;;;;;;;12.57;9.27;;;;;;;;;;4938416;29;20692;-71
2022/04/22 11:30:44;;;;;;;9.95;8.68;;;;;;;;;;4929474;29;20210;-71
2022/04/22 11:33:13;;;;;;;9.50;8.50;;;;;;;;;;4930080;29;20206;-70
2022/04/22 11:35:42;;;;;;;9.70;8.57;;;;;;;;;;4931454;29;20622;-71
2022/04/22 11:38:09;;;;;;;9.57;8.57;;;;;;;;;;4935797;29;20305;-71
2022/04/22 11:40:37;;;;;;;10.73;9.73;;;;;;;;;;4937605;29;20226;-70
2022/04/22 11:43:08;;;;;;;9.20;8.30;;;;;;;;;;4932267;29;20234;-69
2022/04/22 11:45:38;;;;;;;11.52;8.70;;;;;;;;;;4926883;29;20198;-71
2022/04/22 11:48:08;;;;;;;10.15;9.15;;;;;;;;;;4930319;29;20213;-71
2022/04/22 11:50:39;;;;;;;9.90;8.98;;;;;;;;;;4926845;29;20202;-71
2022/04/22 11:53:08;;;;;;;10.75;8.55;;;;;;;;;;4930934;29;20579;-71
2022/04/22 11:55:37;;;;;;;8.95;8.07;;;;;;;;;;4930324;29;20221;-71
2022/04/22 11:58:04;;;;;;;12.02;8.68;;;;;;;;;;4931259;29;20613;-73
2022/04/22 12:06:02;;;;;;;9.95;8.38;;;;;;;;;;4928810;29;20281;-70
2022/04/22 12:08:29;;;;;;;9.52;8.20;;;;;;;;;;4922940;29;20570;-71
2022/04/22 12:10:56;;;;;;;10.35;8.95;;;;;;;;;;4932325;29;20687;-71
2022/04/22 12:13:26;;;;;;;8.27;7.10;;;;;;;;;;4929299;29;20209;-72
2022/04/22 12:15:54;;;;;;;8.60;7.70;;;;;;;;;;4924974;29;20215;-70
2022/04/22 12:18:29;;;;;;;7.95;6.90;;;;;;;;;;4924267;29;20293;-71
2022/04/22 12:20:56;;;;;;;8.60;6.85;;;;;;;;;;4920952;29;20225;-70
2022/04/22 12:23:23;;;;;;;10.98;6.72;;;;;;;;;;4923858;29;20198;-69
2022/04/22 12:25:56;;;;;;;6.60;5.97;;;;;;;;;;4929286;29;20218;-71
2022/04/22 12:28:26;;;;;;;8.23;7.32;;;;;;;;;;4923225;29;20225;-72
2022/04/22 12:30:53;;;;;;;8.55;6.57;;;;;;;;;;4929706;29;20206;-71
2022/04/22 12:33:21;;;;;;;8.02;6.82;;;;;;;;;;4929700;29;20644;-71
2022/04/22 12:35:50;;;;;;;7.72;5.90;;;;;;;;;;4935879;29;20651;-71
2022/04/22 12:38:17;;;;;;;6.90;6.20;;;;;;;;;;4942459;29;20307;-70
2022/04/22 12:40:48;;;;;;;6.18;5.57;;;;;;;;;;4937641;28;20246;-70
2022/04/22 12:43:21;;;;;;;8.63;6.00;;;;;;;;;;4932524;29;20254;-70
2022/04/22 12:54:15;;;;;;;7.07;6.35;;;;;;;;;;4924149;29;20754;-71
2022/04/22 12:56:42;;;;;;;6.55;5.85;;;;;;;;;;4925496;29;20203;-71
2022/04/22 12:59:09;;;;;;;7.05;6.35;;;;;;;;;;4929678;29;20199;-70
2022/04/22 13:01:37;;;;;;;6.60;5.88;;;;;;;;;;4928080;29;20226;-70
2022/04/22 13:04:05;;;;;;;8.70;7.88;;;;;;;;;;4926202;29;20802;-71
2022/04/22 13:06:43;;;;;;;6.65;5.90;;;;;;;;;;4924138;29;20207;-71
2022/04/22 13:09:11;;;;;;;7.18;6.40;;;;;;;;;;4923342;29;20194;-71
2022/04/22 13:11:39;;;;;;;7.70;6.35;;;;;;;;;;4925279;29;20194;-71
2022/04/22 13:14:07;;;;;;;7.18;5.97;;;;;;;;;;4926921;29;20566;-70
2022/04/22 13:16:34;;;;;;;6.57;5.93;;;;;;;;;;4933705;29;20206;-70
2022/04/22 13:19:02;;;;;;;7.38;6.60;;;;;;;;;;4932085;29;20202;-72
2022/04/22 13:21:29;;;;;;;8.30;7.35;;;;;;;;;;4926952;29;20429;-70
2022/04/22 13:23:58;;;;;;;7.22;6.53;;;;;;;;;;4930151;29;20206;-70
2022/04/22 13:26:26;;;;;;;7.10;6.40;;;;;;;;;;4932246;29;20515;-70
2022/04/22 13:28:55;;;;;;;6.63;5.93;;;;;;;;;;4931745;29;20571;-71
2022/04/22 13:31:23;;;;;;;7.10;6.40;;;;;;;;;;4928644;29;20344;-70
2022/04/22 13:33:50;;;;;;;12.30;6.38;;;;;;;;;;4931750;29;20230;-70
2022/04/22 13:36:18;;;;;;;9.90;7.63;;;;;;;;;;4927469;29;20198;-72
2022/04/22 13:38:45;;;;;;;10.35;9.30;;;;;;;;;;4932560;29;20215;-71
2022/04/22 13:41:14;;;;;;;10.07;9.05;;;;;;;;;;4926778;29;20210;-72
2022/04/22 13:43:43;;;;;;;10.32;8.85;;;;;;;;;;4924604;29;20282;-71
2022/04/22 13:54:24;;;;;;;10.25;7.72;;;;;;;;;;4926606;29;20278;-73
2022/04/22 13:56:53;;;;;;;8.60;7.70;;;;;;;;;;4930044;29;20662;-71
2022/04/22 13:59:20;;;;;;;8.45;7.20;;;;;;;;;;4936623;29;20202;-72
2022/04/22 14:01:47;;;;;;;8.05;7.25;;;;;;;;;;4945540;29;20261;-70
2022/04/22 14:04:15;;;;;;;8.70;7.90;;;;;;;;;;4927250;29;20191;-74
2022/04/22 14:06:42;;;;;;;9.93;8.50;;;;;;;;;;4943842;29;20201;-70
2022/04/22 14:09:10;;;;;;;10.70;9.20;;;;;;;;;;4939398;29;20197;-71
2022/04/22 14:11:37;;;;;;;10.35;9.25;;;;;;;;;;4925732;29;20729;-73
2022/04/22 14:14:05;;;;;;;10.07;9.18;;;;;;;;;;4929833;29;20571;-72
2022/04/22 14:16:32;;;;;;;9.63;8.63;;;;;;;;;;4931029;29;20226;-69
2022/04/22 14:18:59;;;;;;;9.68;8.75;;;;;;;;;;4927944;29;20205;-71
2022/04/22 14:21:26;;;;;;;9.15;8.18;;;;;;;;;;4933334;29;20195;-70
2022/04/22 14:23:53;;;;;;;9.45;7.68;;;;;;;;;;4930998;29;20301;-70
2022/04/22 14:26:21;;;;;;;10.13;8.52;;;;;;;;;;4931408;29;20209;-72
2022/04/22 14:28:48;;;;;;;12.02;7.15;;;;;;;;;;4925210;29;20725;-70
2022/04/22 14:31:16;;;;;;;9.23;7.72;;;;;;;;;;4928685;29;20198;-71
2022/04/22 14:33:43;;;;;;;7.70;7.00;;;;;;;;;;4930316;29;20217;-70
2022/04/22 14:36:12;;;;;;;8.70;7.93;;;;;;;;;;4926422;29;20211;-70
2022/04/22 14:38:39;;;;;;;8.65;7.80;;;;;;;;;;4938097;29;20704;-70
2022/04/22 14:41:06;;;;;;;9.88;8.05;;;;;;;;;;4929637;29;20670;-70
2022/04/22 14:43:33;;;;;;;7.65;6.85;;;;;;;;;;4929764;29;20273;-72
2022/04/22 14:46:00;;;;;;;8.60;6.95;;;;;;;;;;4929725;29;20646;-69
2022/04/22 14:48:29;;;;;;;9.45;8.55;;;;;;;;;;4930482;29;20199;-72
2022/04/22 14:50:57;;;;;;;8.50;7.60;;;;;;;;;;4929367;29;20539;-71
2022/04/22 14:53:25;;;;;;;8.75;7.93;;;;;;;;;;4930842;29;20692;-71
2022/04/22 14:55:52;;;;;;;8.85;7.95;;;;;;;;;;4922074;29;20203;-72
2022/04/22 14:58:19;;;;;;;9.88;8.57;;;;;;;;;;4934073;29;20209;-68
2022/04/22 15:00:46;;;;;;;8.70;7.90;;;;;;;;;;4935237;29;20199;-70
2022/04/22 15:03:13;;;;;;;8.32;7.53;;;;;;;;;;4937303;29;20234;-71
2022/04/22 15:05:41;;;;;;;8.77;7.95;;;;;;;;;;4927593;29;20658;-71
2022/04/22 15:08:09;;;;;;;10.00;9.05;;;;;;;;;;4929566;29;20206;-70
2022/04/22 15:10:36;;;;;;;10.82;7.78;;;;;;;;;;4930921;29;20199;-72
2022/04/22 15:13:03;;;;;;;9.95;8.20;;;;;;;;;;4927500;29;20234;-71
2022/04/22 15:15:30;;;;;;;10.18;8.00;;;;;;;;;;4922820;29;20233;-70
2022/04/22 15:26:13;;;;;;;10.98;8.23;;;;;;;;;;4925342;29;20207;-70
2022/04/22 15:28:40;;;;;;;8.05;6.82;;;;;;;;;;4918758;29;20679;-72
2022/04/22 15:31:11;;;;;;;9.60;8.70;;;;;;;;;;4929685;29;20198;-71
2022/04/22 15:33:38;;;;;;;10.57;8.25;;;;;;;;;;4931685;29;20234;-72
2022/04/22 15:36:06;;;;;;;7.38;6.63;;;;;;;;;;4932611;29;20225;-72
2022/04/22 15:38:34;;;;;;;7.43;6.72;;;;;;;;;;4934604;29;20202;-71
2022/04/22 15:41:01;;;;;;;13.20;9.30;;;;;;;;;;4932314;29;20642;-71
2022/04/22 15:43:28;;;;;;;7.45;6.75;;;;;;;;;;4938577;29;20617;-71
2022/04/22 15:45:55;;;;;;;9.48;7.82;;;;;;;;;;4926816;29;20204;-72
2022/04/22 15:48:22;;;;;;;7.95;6.85;;;;;;;;;;4930836;29;20214;-71
2022/04/22 15:50:49;;;;;;;11.68;8.50;;;;;;;;;;4930332;29;20218;-70
2022/04/22 15:53:18;;;;;;;11.43;7.95;;;;;;;;;;4933153;29;20218;-71
2022/04/22 15:55:45;;;;;;;9.95;9.02;;;;;;;;;;4939805;29;20669;-71
2022/04/22 15:58:12;;;;;;;9.95;8.02;;;;;;;;;;4932117;29;20539;-71
2022/04/22 16:00:39;;;;;;;8.27;7.47;;;;;;;;;;4940589;29;20234;-70
2022/04/22 16:03:09;;;;;;;8.15;7.30;;;;;;;;;;4936508;29;20218;-71
2022/04/22 16:05:36;;;;;;;12.75;8.50;;;;;;;;;;4940894;29;20755;-70
2022/04/22 16:08:04;;;;;;;8.82;7.93;;;;;;;;;;4955128;28;20210;-71
2022/04/22 16:10:32;;;;;;;7.35;6.65;;;;;;;;;;4939055;29;20196;-71
2022/04/22 16:15:44;;;;;;;9.10;8.30;;;;;;;;;;4936795;29;20337;-70
2022/04/22 16:18:14;;;;;;;8.93;8.13;;;;;;;;;;4934625;29;20194;-72